sensor_id;sensor_type;location;lat;lon;timestamp;P1;durP1;ratioP1;P2;durP2;ratioP2
59157;SDS011;44940;55.060;73.168;2022-08-27T00:00:30;31.05;;;17.65;;
59157;SDS011;44940;55.060;73.168;2022-08-27T00:02:57;29.77;;;18.23;;
59157;SDS011;44940;55.060;73.168;2022-08-27T00:05:24;31.52;;;19.15;;
59157;SDS011;44940;55.060;73.168;2022-08-27T00:07:51;28.90;;;18.35;;
59157;SDS011;44940;55.060;73.168;2022-08-27T00:10:20;30.08;;;16.73;;
59157;SDS011;44940;55.060;73.168;2022-08-27T00:12:50;28.92;;;17.77;;
59157;SDS011;44940;55.060;73.168;2022-08-27T00:15:17;34.38;;;18.27;;
59157;SDS011;44940;55.060;73.168;2022-08-27T00:17:44;28.45;;;18.08;;
59157;SDS011;44940;55.060;73.168;2022-08-27T00:20:13;29.98;;;17.58;;
59157;SDS011;44940;55.060;73.168;2022-08-27T00:22:42;29.35;;;18.27;;
59157;SDS011;44940;55.060;73.168;2022-08-27T00:25:09;26.00;;;17.52;;
59157;SDS011;44940;55.060;73.168;2022-08-27T00:27:38;31.20;;;18.90;;
59157;SDS011;44940;55.060;73.168;2022-08-27T00:30:09;27.27;;;18.20;;
59157;SDS011;44940;55.060;73.168;2022-08-27T00:32:39;32.38;;;18.10;;
59157;SDS011;44940;55.060;73.168;2022-08-27T00:35:13;32.33;;;17.73;;
59157;SDS011;44940;55.060;73.168;2022-08-27T00:37:42;30.70;;;18.92;;
59157;SDS011;44940;55.060;73.168;2022-08-27T00:40:11;32.30;;;18.17;;
59157;SDS011;44940;55.060;73.168;2022-08-27T00:42:43;31.27;;;19.08;;
59157;SDS011;44940;55.060;73.168;2022-08-27T00:45:22;30.05;;;18.33;;
59157;SDS011;44940;55.060;73.168;2022-08-27T00:47:53;34.70;;;17.42;;
59157;SDS011;44940;55.060;73.168;2022-08-27T00:50:27;31.85;;;17.33;;
59157;SDS011;44940;55.060;73.168;2022-08-27T00:53:00;32.90;;;17.23;;
59157;SDS011;44940;55.060;73.168;2022-08-27T00:55:31;29.60;;;18.73;;
59157;SDS011;44940;55.060;73.168;2022-08-27T00:58:04;27.25;;;16.98;;
59157;SDS011;44940;55.060;73.168;2022-08-27T01:00:37;28.48;;;18.27;;
59157;SDS011;44940;55.060;73.168;2022-08-27T01:03:05;29.85;;;17.98;;
59157;SDS011;44940;55.060;73.168;2022-08-27T01:05:33;30.67;;;18.17;;
59157;SDS011;44940;55.060;73.168;2022-08-27T01:08:02;32.58;;;17.77;;
59157;SDS011;44940;55.060;73.168;2022-08-27T01:10:34;32.08;;;17.60;;
59157;SDS011;44940;55.060;73.168;2022-08-27T01:13:05;31.15;;;17.52;;
59157;SDS011;44940;55.060;73.168;2022-08-27T01:15:33;33.95;;;17.70;;
59157;SDS011;44940;55.060;73.168;2022-08-27T01:18:04;33.03;;;18.77;;
59157;SDS011;44940;55.060;73.168;2022-08-27T01:20:34;34.80;;;18.65;;
59157;SDS011;44940;55.060;73.168;2022-08-27T01:23:21;35.55;;;19.08;;
59157;SDS011;44940;55.060;73.168;2022-08-27T01:25:56;32.40;;;18.27;;
59157;SDS011;44940;55.060;73.168;2022-08-27T01:28:24;33.70;;;19.15;;
59157;SDS011;44940;55.060;73.168;2022-08-27T01:30:51;37.50;;;21.73;;
59157;SDS011;44940;55.060;73.168;2022-08-27T01:33:19;32.30;;;18.17;;
59157;SDS011;44940;55.060;73.168;2022-08-27T01:35:47;33.13;;;19.50;;
59157;SDS011;44940;55.060;73.168;2022-08-27T01:38:16;36.20;;;20.05;;
59157;SDS011;44940;55.060;73.168;2022-08-27T01:40:46;39.63;;;19.67;;
59157;SDS011;44940;55.060;73.168;2022-08-27T01:43:14;37.78;;;20.88;;
59157;SDS011;44940;55.060;73.168;2022-08-27T01:45:43;45.30;;;21.70;;
59157;SDS011;44940;55.060;73.168;2022-08-27T01:48:13;49.15;;;23.30;;
59157;SDS011;44940;55.060;73.168;2022-08-27T01:50:41;51.90;;;24.58;;
59157;SDS011;44940;55.060;73.168;2022-08-27T01:53:09;47.53;;;25.95;;
59157;SDS011;44940;55.060;73.168;2022-08-27T01:55:40;53.58;;;27.67;;
59157;SDS011;44940;55.060;73.168;2022-08-27T01:58:08;57.65;;;27.92;;
59157;SDS011;44940;55.060;73.168;2022-08-27T02:00:38;48.00;;;26.80;;
59157;SDS011;44940;55.060;73.168;2022-08-27T02:03:08;52.80;;;27.60;;
59157;SDS011;44940;55.060;73.168;2022-08-27T02:05:36;47.78;;;27.98;;
59157;SDS011;44940;55.060;73.168;2022-08-27T02:08:09;52.78;;;27.23;;
59157;SDS011;44940;55.060;73.168;2022-08-27T02:10:37;55.03;;;28.90;;
59157;SDS011;44940;55.060;73.168;2022-08-27T02:13:05;50.95;;;28.00;;
59157;SDS011;44940;55.060;73.168;2022-08-27T02:15:33;57.17;;;31.10;;
59157;SDS011;44940;55.060;73.168;2022-08-27T02:18:03;51.22;;;28.40;;
59157;SDS011;44940;55.060;73.168;2022-08-27T02:20:32;49.95;;;27.05;;
59157;SDS011;44940;55.060;73.168;2022-08-27T02:23:00;52.83;;;27.67;;
59157;SDS011;44940;55.060;73.168;2022-08-27T02:25:27;55.83;;;25.63;;
59157;SDS011;44940;55.060;73.168;2022-08-27T02:27:57;51.13;;;28.27;;
59157;SDS011;44940;55.060;73.168;2022-08-27T02:30:25;53.00;;;28.77;;
59157;SDS011;44940;55.060;73.168;2022-08-27T02:32:54;57.85;;;27.13;;
59157;SDS011;44940;55.060;73.168;2022-08-27T02:35:23;54.70;;;30.00;;
59157;SDS011;44940;55.060;73.168;2022-08-27T02:37:50;56.25;;;30.42;;
59157;SDS011;44940;55.060;73.168;2022-08-27T02:40:19;56.90;;;31.15;;
59157;SDS011;44940;55.060;73.168;2022-08-27T02:42:47;54.17;;;28.98;;
59157;SDS011;44940;55.060;73.168;2022-08-27T02:45:16;59.38;;;31.67;;
59157;SDS011;44940;55.060;73.168;2022-08-27T02:47:43;55.70;;;31.48;;
59157;SDS011;44940;55.060;73.168;2022-08-27T02:50:11;57.13;;;29.63;;
59157;SDS011;44940;55.060;73.168;2022-08-27T02:52:41;59.95;;;30.70;;
59157;SDS011;44940;55.060;73.168;2022-08-27T02:55:10;57.30;;;29.90;;
59157;SDS011;44940;55.060;73.168;2022-08-27T02:57:38;55.63;;;28.73;;
59157;SDS011;44940;55.060;73.168;2022-08-27T03:00:07;55.05;;;30.33;;
59157;SDS011;44940;55.060;73.168;2022-08-27T03:02:37;58.05;;;31.77;;
59157;SDS011;44940;55.060;73.168;2022-08-27T03:05:05;51.58;;;29.13;;
59157;SDS011;44940;55.060;73.168;2022-08-27T03:07:33;56.05;;;30.05;;
59157;SDS011;44940;55.060;73.168;2022-08-27T03:10:02;51.88;;;30.63;;
59157;SDS011;44940;55.060;73.168;2022-08-27T03:12:30;51.78;;;29.85;;
59157;SDS011;44940;55.060;73.168;2022-08-27T03:14:59;56.97;;;30.70;;
59157;SDS011;44940;55.060;73.168;2022-08-27T03:17:26;57.92;;;29.50;;
59157;SDS011;44940;55.060;73.168;2022-08-27T03:20:12;62.33;;;29.35;;
59157;SDS011;44940;55.060;73.168;2022-08-27T03:22:39;54.03;;;31.30;;
59157;SDS011;44940;55.060;73.168;2022-08-27T03:25:09;62.17;;;30.45;;
59157;SDS011;44940;55.060;73.168;2022-08-27T03:27:37;56.28;;;28.75;;
59157;SDS011;44940;55.060;73.168;2022-08-27T03:30:05;59.03;;;30.15;;
59157;SDS011;44940;55.060;73.168;2022-08-27T03:32:34;70.25;;;30.85;;
59157;SDS011;44940;55.060;73.168;2022-08-27T03:35:02;52.47;;;28.73;;
59157;SDS011;44940;55.060;73.168;2022-08-27T03:37:30;61.22;;;28.65;;
59157;SDS011;44940;55.060;73.168;2022-08-27T03:39:57;50.38;;;27.45;;
59157;SDS011;44940;55.060;73.168;2022-08-27T03:42:26;51.20;;;28.17;;
59157;SDS011;44940;55.060;73.168;2022-08-27T03:44:53;49.85;;;27.30;;
59157;SDS011;44940;55.060;73.168;2022-08-27T03:47:20;52.55;;;28.25;;
59157;SDS011;44940;55.060;73.168;2022-08-27T03:49:49;49.92;;;24.15;;
59157;SDS011;44940;55.060;73.168;2022-08-27T03:52:16;55.53;;;29.27;;
59157;SDS011;44940;55.060;73.168;2022-08-27T03:54:43;54.50;;;27.85;;
59157;SDS011;44940;55.060;73.168;2022-08-27T03:57:11;51.40;;;28.92;;
59157;SDS011;44940;55.060;73.168;2022-08-27T03:59:39;60.95;;;27.38;;
59157;SDS011;44940;55.060;73.168;2022-08-27T04:02:07;56.50;;;27.30;;
59157;SDS011;44940;55.060;73.168;2022-08-27T04:04:34;48.55;;;27.90;;
59157;SDS011;44940;55.060;73.168;2022-08-27T04:07:01;61.55;;;28.02;;
59157;SDS011;44940;55.060;73.168;2022-08-27T04:09:28;48.17;;;26.50;;
59157;SDS011;44940;55.060;73.168;2022-08-27T04:11:55;49.67;;;26.42;;
59157;SDS011;44940;55.060;73.168;2022-08-27T04:14:23;54.88;;;28.40;;
59157;SDS011;44940;55.060;73.168;2022-08-27T04:16:53;48.58;;;25.60;;
59157;SDS011;44940;55.060;73.168;2022-08-27T04:19:21;44.20;;;23.27;;
59157;SDS011;44940;55.060;73.168;2022-08-27T04:21:49;37.63;;;21.83;;
59157;SDS011;44940;55.060;73.168;2022-08-27T04:24:16;39.08;;;21.63;;
59157;SDS011;44940;55.060;73.168;2022-08-27T04:26:43;47.88;;;21.27;;
59157;SDS011;44940;55.060;73.168;2022-08-27T04:29:12;36.92;;;19.98;;
59157;SDS011;44940;55.060;73.168;2022-08-27T04:31:40;42.92;;;21.23;;
59157;SDS011;44940;55.060;73.168;2022-08-27T04:34:08;32.00;;;19.23;;
59157;SDS011;44940;55.060;73.168;2022-08-27T04:36:36;31.83;;;16.35;;
59157;SDS011;44940;55.060;73.168;2022-08-27T04:39:03;24.85;;;14.27;;
59157;SDS011;44940;55.060;73.168;2022-08-27T04:41:30;31.30;;;16.08;;
59157;SDS011;44940;55.060;73.168;2022-08-27T04:44:01;34.92;;;16.17;;
59157;SDS011;44940;55.060;73.168;2022-08-27T04:46:30;30.40;;;15.85;;
59157;SDS011;44940;55.060;73.168;2022-08-27T04:49:00;29.05;;;16.00;;
59157;SDS011;44940;55.060;73.168;2022-08-27T04:51:31;28.20;;;16.00;;
59157;SDS011;44940;55.060;73.168;2022-08-27T04:54:00;30.58;;;16.38;;
59157;SDS011;44940;55.060;73.168;2022-08-27T04:56:28;28.90;;;16.33;;
59157;SDS011;44940;55.060;73.168;2022-08-27T04:58:56;28.95;;;17.02;;
59157;SDS011;44940;55.060;73.168;2022-08-27T05:01:27;28.30;;;14.57;;
59157;SDS011;44940;55.060;73.168;2022-08-27T05:03:55;26.77;;;13.57;;
59157;SDS011;44940;55.060;73.168;2022-08-27T05:06:31;23.42;;;12.52;;
59157;SDS011;44940;55.060;73.168;2022-08-27T05:08:59;30.77;;;14.48;;
59157;SDS011;44940;55.060;73.168;2022-08-27T05:11:27;26.05;;;12.65;;
59157;SDS011;44940;55.060;73.168;2022-08-27T05:13:57;25.05;;;13.30;;
59157;SDS011;44940;55.060;73.168;2022-08-27T05:16:24;25.88;;;12.75;;
59157;SDS011;44940;55.060;73.168;2022-08-27T05:18:52;25.40;;;12.63;;
59157;SDS011;44940;55.060;73.168;2022-08-27T05:21:20;22.25;;;12.23;;
59157;SDS011;44940;55.060;73.168;2022-08-27T05:23:51;19.30;;;11.73;;
59157;SDS011;44940;55.060;73.168;2022-08-27T05:26:20;23.65;;;12.77;;
59157;SDS011;44940;55.060;73.168;2022-08-27T05:28:48;22.55;;;10.38;;
59157;SDS011;44940;55.060;73.168;2022-08-27T05:31:15;23.50;;;10.18;;
59157;SDS011;44940;55.060;73.168;2022-08-27T05:33:43;24.77;;;10.05;;
59157;SDS011;44940;55.060;73.168;2022-08-27T05:36:16;19.95;;;9.52;;
59157;SDS011;44940;55.060;73.168;2022-08-27T05:38:45;22.20;;;10.10;;
59157;SDS011;44940;55.060;73.168;2022-08-27T05:41:16;19.67;;;8.93;;
59157;SDS011;44940;55.060;73.168;2022-08-27T05:43:45;25.23;;;9.02;;
59157;SDS011;44940;55.060;73.168;2022-08-27T05:46:14;21.52;;;9.75;;
59157;SDS011;44940;55.060;73.168;2022-08-27T05:48:43;18.67;;;10.13;;
59157;SDS011;44940;55.060;73.168;2022-08-27T05:51:12;24.75;;;10.27;;
59157;SDS011;44940;55.060;73.168;2022-08-27T05:53:41;22.20;;;9.70;;
59157;SDS011;44940;55.060;73.168;2022-08-27T05:56:12;16.60;;;8.07;;
59157;SDS011;44940;55.060;73.168;2022-08-27T05:58:42;19.75;;;8.90;;
59157;SDS011;44940;55.060;73.168;2022-08-27T06:01:28;15.73;;;7.13;;
59157;SDS011;44940;55.060;73.168;2022-08-27T06:03:56;25.25;;;8.73;;
59157;SDS011;44940;55.060;73.168;2022-08-27T06:06:23;13.13;;;7.88;;
59157;SDS011;44940;55.060;73.168;2022-08-27T06:08:51;21.20;;;9.15;;
59157;SDS011;44940;55.060;73.168;2022-08-27T06:11:19;15.30;;;8.25;;
59157;SDS011;44940;55.060;73.168;2022-08-27T06:13:48;16.88;;;7.80;;
59157;SDS011;44940;55.060;73.168;2022-08-27T06:16:16;13.65;;;7.95;;
59157;SDS011;44940;55.060;73.168;2022-08-27T06:18:45;13.48;;;7.65;;
59157;SDS011;44940;55.060;73.168;2022-08-27T06:21:13;14.75;;;7.57;;
59157;SDS011;44940;55.060;73.168;2022-08-27T06:23:42;15.45;;;7.28;;
59157;SDS011;44940;55.060;73.168;2022-08-27T06:26:10;14.45;;;7.68;;
59157;SDS011;44940;55.060;73.168;2022-08-27T06:28:39;13.18;;;7.32;;
59157;SDS011;44940;55.060;73.168;2022-08-27T06:31:08;10.68;;;6.10;;
59157;SDS011;44940;55.060;73.168;2022-08-27T06:33:38;11.93;;;6.32;;
59157;SDS011;44940;55.060;73.168;2022-08-27T06:36:07;18.13;;;6.15;;
59157;SDS011;44940;55.060;73.168;2022-08-27T06:38:36;10.52;;;5.65;;
59157;SDS011;44940;55.060;73.168;2022-08-27T06:41:04;14.25;;;5.13;;
59157;SDS011;44940;55.060;73.168;2022-08-27T06:43:33;12.23;;;5.45;;
59157;SDS011;44940;55.060;73.168;2022-08-27T06:46:01;10.70;;;5.47;;
59157;SDS011;44940;55.060;73.168;2022-08-27T06:48:30;13.50;;;5.13;;
59157;SDS011;44940;55.060;73.168;2022-08-27T06:50:58;10.80;;;5.32;;
59157;SDS011;44940;55.060;73.168;2022-08-27T06:53:26;11.15;;;4.57;;
59157;SDS011;44940;55.060;73.168;2022-08-27T06:55:53;7.45;;;4.53;;
59157;SDS011;44940;55.060;73.168;2022-08-27T06:58:20;11.75;;;5.30;;
59157;SDS011;44940;55.060;73.168;2022-08-27T07:00:47;8.15;;;3.60;;
59157;SDS011;44940;55.060;73.168;2022-08-27T07:03:16;7.53;;;3.97;;
59157;SDS011;44940;55.060;73.168;2022-08-27T07:05:45;7.68;;;4.22;;
59157;SDS011;44940;55.060;73.168;2022-08-27T07:08:12;14.40;;;4.22;;
59157;SDS011;44940;55.060;73.168;2022-08-27T07:10:39;10.10;;;4.45;;
59157;SDS011;44940;55.060;73.168;2022-08-27T07:13:07;12.60;;;4.10;;
59157;SDS011;44940;55.060;73.168;2022-08-27T07:15:37;7.28;;;3.78;;
59157;SDS011;44940;55.060;73.168;2022-08-27T07:18:04;11.15;;;4.00;;
59157;SDS011;44940;55.060;73.168;2022-08-27T07:20:32;8.05;;;4.22;;
59157;SDS011;44940;55.060;73.168;2022-08-27T07:23:01;9.30;;;3.67;;
59157;SDS011;44940;55.060;73.168;2022-08-27T07:25:28;18.45;;;5.10;;
59157;SDS011;44940;55.060;73.168;2022-08-27T07:27:57;11.63;;;4.40;;
59157;SDS011;44940;55.060;73.168;2022-08-27T07:30:25;6.40;;;3.30;;
59157;SDS011;44940;55.060;73.168;2022-08-27T07:32:53;5.28;;;3.33;;
59157;SDS011;44940;55.060;73.168;2022-08-27T07:35:20;6.28;;;3.30;;
59157;SDS011;44940;55.060;73.168;2022-08-27T07:37:48;15.27;;;3.15;;
59157;SDS011;44940;55.060;73.168;2022-08-27T07:40:17;8.25;;;3.13;;
59157;SDS011;44940;55.060;73.168;2022-08-27T07:42:44;6.47;;;2.78;;
59157;SDS011;44940;55.060;73.168;2022-08-27T07:45:30;7.95;;;2.90;;
59157;SDS011;44940;55.060;73.168;2022-08-27T07:47:58;5.63;;;3.25;;
59157;SDS011;44940;55.060;73.168;2022-08-27T07:50:25;5.88;;;3.42;;
59157;SDS011;44940;55.060;73.168;2022-08-27T07:52:52;10.20;;;2.85;;
59157;SDS011;44940;55.060;73.168;2022-08-27T07:55:21;5.63;;;2.40;;
59157;SDS011;44940;55.060;73.168;2022-08-27T07:57:48;9.30;;;2.90;;
59157;SDS011;44940;55.060;73.168;2022-08-27T08:00:15;5.95;;;2.50;;
59157;SDS011;44940;55.060;73.168;2022-08-27T08:02:42;3.60;;;2.25;;
59157;SDS011;44940;55.060;73.168;2022-08-27T08:05:10;7.45;;;2.90;;
59157;SDS011;44940;55.060;73.168;2022-08-27T08:07:37;6.03;;;3.33;;
59157;SDS011;44940;55.060;73.168;2022-08-27T08:10:05;8.55;;;3.17;;
59157;SDS011;44940;55.060;73.168;2022-08-27T08:12:35;7.13;;;3.05;;
59157;SDS011;44940;55.060;73.168;2022-08-27T08:15:03;4.88;;;2.17;;
59157;SDS011;44940;55.060;73.168;2022-08-27T08:17:32;9.35;;;3.25;;
59157;SDS011;44940;55.060;73.168;2022-08-27T08:20:00;5.40;;;2.00;;
59157;SDS011;44940;55.060;73.168;2022-08-27T08:22:28;8.02;;;3.60;;
59157;SDS011;44940;55.060;73.168;2022-08-27T08:24:55;18.52;;;3.10;;
59157;SDS011;44940;55.060;73.168;2022-08-27T08:27:22;9.95;;;4.05;;
59157;SDS011;44940;55.060;73.168;2022-08-27T08:29:51;12.45;;;4.57;;
59157;SDS011;44940;55.060;73.168;2022-08-27T08:32:18;8.15;;;4.30;;
59157;SDS011;44940;55.060;73.168;2022-08-27T08:34:46;8.85;;;4.18;;
59157;SDS011;44940;55.060;73.168;2022-08-27T08:37:13;6.63;;;2.85;;
59157;SDS011;44940;55.060;73.168;2022-08-27T08:39:41;5.03;;;2.25;;
59157;SDS011;44940;55.060;73.168;2022-08-27T08:42:09;8.32;;;2.42;;
59157;SDS011;44940;55.060;73.168;2022-08-27T08:44:55;3.85;;;2.08;;
59157;SDS011;44940;55.060;73.168;2022-08-27T08:47:25;5.30;;;1.85;;
59157;SDS011;44940;55.060;73.168;2022-08-27T08:49:59;11.48;;;2.63;;
59157;SDS011;44940;55.060;73.168;2022-08-27T08:52:37;4.55;;;2.45;;
59157;SDS011;44940;55.060;73.168;2022-08-27T08:55:14;12.55;;;2.70;;
59157;SDS011;44940;55.060;73.168;2022-08-27T08:57:50;6.35;;;2.40;;
59157;SDS011;44940;55.060;73.168;2022-08-27T09:00:26;6.93;;;2.10;;
59157;SDS011;44940;55.060;73.168;2022-08-27T09:02:53;11.40;;;2.53;;
59157;SDS011;44940;55.060;73.168;2022-08-27T09:05:21;5.07;;;2.08;;
59157;SDS011;44940;55.060;73.168;2022-08-27T09:07:53;6.28;;;2.00;;
59157;SDS011;44940;55.060;73.168;2022-08-27T09:10:30;6.97;;;2.30;;
59157;SDS011;44940;55.060;73.168;2022-08-27T09:13:17;5.00;;;2.20;;
59157;SDS011;44940;55.060;73.168;2022-08-27T09:15:49;11.18;;;2.30;;
59157;SDS011;44940;55.060;73.168;2022-08-27T09:18:19;6.82;;;2.13;;
59157;SDS011;44940;55.060;73.168;2022-08-27T09:20:48;3.92;;;2.00;;
59157;SDS011;44940;55.060;73.168;2022-08-27T09:23:23;5.13;;;2.13;;
59157;SDS011;44940;55.060;73.168;2022-08-27T09:25:56;5.60;;;2.13;;
59157;SDS011;44940;55.060;73.168;2022-08-27T09:28:24;12.55;;;1.90;;
59157;SDS011;44940;55.060;73.168;2022-08-27T09:31:14;7.03;;;1.70;;
59157;SDS011;44940;55.060;73.168;2022-08-27T09:33:43;7.38;;;1.67;;
59157;SDS011;44940;55.060;73.168;2022-08-27T09:36:11;4.20;;;1.90;;
59157;SDS011;44940;55.060;73.168;2022-08-27T09:38:40;14.30;;;6.38;;
59157;SDS011;44940;55.060;73.168;2022-08-27T09:41:18;4.80;;;2.03;;
59157;SDS011;44940;55.060;73.168;2022-08-27T09:43:55;3.20;;;1.88;;
59157;SDS011;44940;55.060;73.168;2022-08-27T09:46:25;7.05;;;2.50;;
59157;SDS011;44940;55.060;73.168;2022-08-27T09:48:53;12.85;;;2.28;;
59157;SDS011;44940;55.060;73.168;2022-08-27T09:51:21;8.63;;;1.83;;
59157;SDS011;44940;55.060;73.168;2022-08-27T09:53:52;5.55;;;1.98;;
59157;SDS011;44940;55.060;73.168;2022-08-27T09:56:26;10.00;;;2.40;;
59157;SDS011;44940;55.060;73.168;2022-08-27T09:58:59;9.88;;;1.92;;
59157;SDS011;44940;55.060;73.168;2022-08-27T10:01:31;14.70;;;3.30;;
59157;SDS011;44940;55.060;73.168;2022-08-27T10:04:06;10.80;;;2.65;;
59157;SDS011;44940;55.060;73.168;2022-08-27T10:06:42;7.82;;;1.88;;
59157;SDS011;44940;55.060;73.168;2022-08-27T10:09:12;4.95;;;2.10;;
59157;SDS011;44940;55.060;73.168;2022-08-27T10:11:43;8.55;;;2.33;;
59157;SDS011;44940;55.060;73.168;2022-08-27T10:14:17;6.47;;;2.50;;
59157;SDS011;44940;55.060;73.168;2022-08-27T10:16:55;14.98;;;2.70;;
59157;SDS011;44940;55.060;73.168;2022-08-27T10:19:35;8.10;;;1.98;;
59157;SDS011;44940;55.060;73.168;2022-08-27T10:22:19;5.38;;;2.67;;
59157;SDS011;44940;55.060;73.168;2022-08-27T10:25:04;13.23;;;2.50;;
59157;SDS011;44940;55.060;73.168;2022-08-27T10:27:39;18.88;;;3.60;;
59157;SDS011;44940;55.060;73.168;2022-08-27T10:30:12;5.00;;;2.30;;
59157;SDS011;44940;55.060;73.168;2022-08-27T10:32:55;16.30;;;2.17;;
59157;SDS011;44940;55.060;73.168;2022-08-27T10:35:32;8.60;;;2.28;;
59157;SDS011;44940;55.060;73.168;2022-08-27T10:38:09;4.25;;;2.00;;
59157;SDS011;44940;55.060;73.168;2022-08-27T10:40:42;5.88;;;2.13;;
59157;SDS011;44940;55.060;73.168;2022-08-27T10:43:21;10.02;;;2.90;;
59157;SDS011;44940;55.060;73.168;2022-08-27T10:46:03;4.47;;;2.60;;
59157;SDS011;44940;55.060;73.168;2022-08-27T10:48:47;8.68;;;2.75;;
59157;SDS011;44940;55.060;73.168;2022-08-27T10:51:22;11.13;;;3.75;;
59157;SDS011;44940;55.060;73.168;2022-08-27T10:53:58;7.70;;;2.70;;
59157;SDS011;44940;55.060;73.168;2022-08-27T10:56:32;4.47;;;2.40;;
59157;SDS011;44940;55.060;73.168;2022-08-27T10:59:08;3.47;;;2.10;;
59157;SDS011;44940;55.060;73.168;2022-08-27T11:01:47;5.28;;;2.78;;
59157;SDS011;44940;55.060;73.168;2022-08-27T11:04:25;3.75;;;1.98;;
59157;SDS011;44940;55.060;73.168;2022-08-27T11:06:59;9.52;;;2.35;;
59157;SDS011;44940;55.060;73.168;2022-08-27T11:09:33;8.50;;;2.60;;
59157;SDS011;44940;55.060;73.168;2022-08-27T11:12:05;3.63;;;2.10;;
59157;SDS011;44940;55.060;73.168;2022-08-27T11:14:37;3.03;;;1.90;;
59157;SDS011;44940;55.060;73.168;2022-08-27T11:17:12;7.28;;;2.53;;
59157;SDS011;44940;55.060;73.168;2022-08-27T11:19:46;8.48;;;2.90;;
59157;SDS011;44940;55.060;73.168;2022-08-27T11:22:23;4.93;;;1.88;;
59157;SDS011;44940;55.060;73.168;2022-08-27T11:24:56;5.05;;;2.20;;
59157;SDS011;44940;55.060;73.168;2022-08-27T11:27:29;12.10;;;3.05;;
59157;SDS011;44940;55.060;73.168;2022-08-27T11:29:59;7.85;;;2.13;;
59157;SDS011;44940;55.060;73.168;2022-08-27T11:32:34;4.00;;;2.45;;
59157;SDS011;44940;55.060;73.168;2022-08-27T11:35:14;12.63;;;3.65;;
59157;SDS011;44940;55.060;73.168;2022-08-27T11:37:53;13.48;;;6.22;;
59157;SDS011;44940;55.060;73.168;2022-08-27T11:40:49;5.72;;;3.10;;
59157;SDS011;44940;55.060;73.168;2022-08-27T11:43:27;3.80;;;2.50;;
59157;SDS011;44940;55.060;73.168;2022-08-27T11:46:00;11.45;;;3.70;;
59157;SDS011;44940;55.060;73.168;2022-08-27T11:48:31;17.90;;;10.45;;
59157;SDS011;44940;55.060;73.168;2022-08-27T11:51:03;11.40;;;8.30;;
59157;SDS011;44940;55.060;73.168;2022-08-27T11:53:33;4.88;;;3.17;;
59157;SDS011;44940;55.060;73.168;2022-08-27T11:56:10;5.07;;;2.78;;
59157;SDS011;44940;55.060;73.168;2022-08-27T11:58:41;21.20;;;4.10;;
59157;SDS011;44940;55.060;73.168;2022-08-27T12:01:16;4.30;;;2.70;;
59157;SDS011;44940;55.060;73.168;2022-08-27T12:03:58;3.50;;;2.30;;
59157;SDS011;44940;55.060;73.168;2022-08-27T12:06:38;8.60;;;2.67;;
59157;SDS011;44940;55.060;73.168;2022-08-27T12:09:12;5.32;;;2.30;;
59157;SDS011;44940;55.060;73.168;2022-08-27T12:11:43;7.47;;;2.50;;
59157;SDS011;44940;55.060;73.168;2022-08-27T12:14:24;5.93;;;2.63;;
59157;SDS011;44940;55.060;73.168;2022-08-27T12:17:04;10.23;;;4.30;;
59157;SDS011;44940;55.060;73.168;2022-08-27T12:19:41;4.65;;;2.25;;
59157;SDS011;44940;55.060;73.168;2022-08-27T12:22:22;6.18;;;1.90;;
59157;SDS011;44940;55.060;73.168;2022-08-27T12:25:27;4.78;;;2.40;;
59157;SDS011;44940;55.060;73.168;2022-08-27T12:27:55;9.25;;;3.38;;
59157;SDS011;44940;55.060;73.168;2022-08-27T12:30:27;5.78;;;2.60;;
59157;SDS011;44940;55.060;73.168;2022-08-27T12:32:56;7.97;;;3.30;;
59157;SDS011;44940;55.060;73.168;2022-08-27T12:35:30;10.05;;;4.18;;
59157;SDS011;44940;55.060;73.168;2022-08-27T12:38:11;6.15;;;2.97;;
59157;SDS011;44940;55.060;73.168;2022-08-27T12:40:45;12.85;;;1.70;;
59157;SDS011;44940;55.060;73.168;2022-08-27T12:43:17;5.05;;;2.00;;
59157;SDS011;44940;55.060;73.168;2022-08-27T12:45:46;9.07;;;1.98;;
59157;SDS011;44940;55.060;73.168;2022-08-27T12:48:17;6.40;;;2.20;;
59157;SDS011;44940;55.060;73.168;2022-08-27T12:50:50;4.75;;;2.13;;
59157;SDS011;44940;55.060;73.168;2022-08-27T12:53:28;6.25;;;2.60;;
59157;SDS011;44940;55.060;73.168;2022-08-27T12:58:59;6.35;;;2.80;;
59157;SDS011;44940;55.060;73.168;2022-08-27T13:01:42;6.45;;;2.70;;
59157;SDS011;44940;55.060;73.168;2022-08-27T13:04:21;9.73;;;3.70;;
59157;SDS011;44940;55.060;73.168;2022-08-27T13:06:51;13.02;;;4.55;;
59157;SDS011;44940;55.060;73.168;2022-08-27T13:09:26;16.05;;;4.90;;
59157;SDS011;44940;55.060;73.168;2022-08-27T13:11:54;11.68;;;4.18;;
59157;SDS011;44940;55.060;73.168;2022-08-27T13:14:23;8.63;;;2.22;;
59157;SDS011;44940;55.060;73.168;2022-08-27T13:16:52;4.07;;;1.70;;
59157;SDS011;44940;55.060;73.168;2022-08-27T13:19:23;6.30;;;2.35;;
59157;SDS011;44940;55.060;73.168;2022-08-27T13:21:52;7.18;;;2.78;;
59157;SDS011;44940;55.060;73.168;2022-08-27T13:24:25;10.75;;;4.30;;
59157;SDS011;44940;55.060;73.168;2022-08-27T13:26:56;17.55;;;4.68;;
59157;SDS011;44940;55.060;73.168;2022-08-27T13:29:24;15.88;;;8.60;;
59157;SDS011;44940;55.060;73.168;2022-08-27T13:31:52;13.52;;;5.38;;
59157;SDS011;44940;55.060;73.168;2022-08-27T13:34:21;13.00;;;6.22;;
59157;SDS011;44940;55.060;73.168;2022-08-27T13:36:53;20.02;;;7.95;;
59157;SDS011;44940;55.060;73.168;2022-08-27T13:39:24;18.45;;;7.65;;
59157;SDS011;44940;55.060;73.168;2022-08-27T13:41:56;19.77;;;12.45;;
59157;SDS011;44940;55.060;73.168;2022-08-27T13:44:25;26.45;;;13.60;;
59157;SDS011;44940;55.060;73.168;2022-08-27T13:46:58;23.50;;;12.23;;
59157;SDS011;44940;55.060;73.168;2022-08-27T13:49:29;19.90;;;11.35;;
59157;SDS011;44940;55.060;73.168;2022-08-27T13:51:58;25.75;;;13.77;;
59157;SDS011;44940;55.060;73.168;2022-08-27T13:54:27;19.40;;;9.85;;
59157;SDS011;44940;55.060;73.168;2022-08-27T13:56:59;13.40;;;6.57;;
59157;SDS011;44940;55.060;73.168;2022-08-27T13:59:34;16.80;;;8.82;;
59157;SDS011;44940;55.060;73.168;2022-08-27T14:02:15;32.92;;;16.75;;
59157;SDS011;44940;55.060;73.168;2022-08-27T14:04:47;17.13;;;8.80;;
59157;SDS011;44940;55.060;73.168;2022-08-27T14:07:19;21.00;;;7.10;;
59157;SDS011;44940;55.060;73.168;2022-08-27T14:09:51;13.75;;;6.10;;
59157;SDS011;44940;55.060;73.168;2022-08-27T14:12:26;13.55;;;7.03;;
59157;SDS011;44940;55.060;73.168;2022-08-27T14:14:56;15.68;;;8.43;;
59157;SDS011;44940;55.060;73.168;2022-08-27T14:17:37;23.63;;;9.77;;
59157;SDS011;44940;55.060;73.168;2022-08-27T14:20:05;23.02;;;6.65;;
59157;SDS011;44940;55.060;73.168;2022-08-27T14:22:33;12.55;;;7.82;;
59157;SDS011;44940;55.060;73.168;2022-08-27T14:25:00;28.25;;;14.60;;
59157;SDS011;44940;55.060;73.168;2022-08-27T14:27:29;23.13;;;9.90;;
59157;SDS011;44940;55.060;73.168;2022-08-27T14:29:57;14.23;;;7.88;;
59157;SDS011;44940;55.060;73.168;2022-08-27T14:32:24;17.75;;;6.60;;
59157;SDS011;44940;55.060;73.168;2022-08-27T14:34:52;18.45;;;5.55;;
59157;SDS011;44940;55.060;73.168;2022-08-27T14:37:19;22.35;;;6.40;;
59157;SDS011;44940;55.060;73.168;2022-08-27T14:39:47;17.40;;;6.20;;
59157;SDS011;44940;55.060;73.168;2022-08-27T14:42:15;13.23;;;4.18;;
59157;SDS011;44940;55.060;73.168;2022-08-27T14:44:45;16.25;;;4.43;;